Flight Track Log - Related Links

Times and Time Zones

All times are in EDT time to prevent confusion due to time zone crossing. See the N658FE flight status page for this flight to view local times or setup timezone preferences in your user account.

Time Position Orientation Groundspeed Altitude Reporting Facility
EDT Latitude Longitude Course Direction KTS MPH feet Rate Location/Type
Fri 06:05:12 AM 37.7070 -122.2620 204° Southwest 2,300  Level FlightAware ADS-B
Fri 06:05:17 AM 37.7020 -122.2640 198° South 2,400 2,571 Climbing FlightAware ADS-B
Fri 06:05:19 AM 37.7000 -122.2667 113° Southeast 182 209 2,600 2,893 Climbing Northern Cal TRACON
Fri 06:06:13 AM 37.6500 -122.2167 142° Southeast 275 316 5,100 3,214 Climbing Northern Cal TRACON
Fri 06:06:22 AM 37.6420 -122.2080 144° Southeast 5,900 3,621 Climbing FlightAware ADS-B
Fri 06:06:27 AM 37.6380 -122.2030 135° Southeast 6,300 3,306 Climbing FlightAware ADS-B
Fri 06:07:11 AM 37.6067 -122.1608 134° Southeast 274 315 8,600 3,115 Climbing Oakland Center
Fri 06:08:11 AM 37.5542 -122.0722 127° Southeast 311 358 11,700 2,975 Climbing Oakland Center
Fri 06:09:00 AM 37.5347 -121.8521 127° Southeast  Level FlightAware Approximate
Fri 06:09:12 AM 37.4994 -121.9558 121° Southeast 375 432 14,600  Level Oakland Center
Fri 06:10:00 AM 37.4716 -121.7315 113° Southeast  Level FlightAware Approximate
Fri 06:10:12 AM 37.4386 -121.8311 122° Southeast 408 470 18,200  Level Oakland Center
Fri 06:11:12 AM 37.3764 -121.7006 121° Southeast 430 495 21,200 366 Climbing Oakland Center
Fri 06:16:37 AM 36.9890 -120.9230 121° Southeast 34,800 307 Climbing FlightAware ADS-B
Fri 06:17:22 AM 36.9310 -120.8080 122° Southeast 35,000 Climbing FlightAware ADS-B
Fri 06:17:52 AM 36.8980 -120.7430 122° Southeast 35,000  Level FlightAware ADS-B
Fri 06:18:47 AM 36.8280 -120.6040 122° Southeast 35,000  Level FlightAware ADS-B
Fri 06:19:27 AM 36.7820 -120.5140 123° Southeast 35,000  Level FlightAware ADS-B
Fri 06:20:07 AM 36.7320 -120.4170 123° Southeast 35,000  Level FlightAware ADS-B
Fri 06:20:52 AM 36.6790 -120.3120 122° Southeast 35,000  Level FlightAware ADS-B
Fri 06:21:32 AM 36.6320 -120.2200 122° Southeast 35,000  Level FlightAware ADS-B
Fri 06:22:12 AM 36.5830 -120.1250 123° Southeast 35,000  Level FlightAware ADS-B
Fri 06:22:57 AM 36.5300 -120.0230 123° Southeast 35,000  Level FlightAware ADS-B
Fri 06:23:37 AM 36.4840 -119.9330 122° Southeast 35,000  Level FlightAware ADS-B
Fri 06:24:17 AM 36.4310 -119.8320 123° Southeast 35,000  Level FlightAware ADS-B
Fri 06:25:02 AM 36.3770 -119.7280 123° Southeast 35,000  Level FlightAware ADS-B
Fri 06:25:42 AM 36.3280 -119.6330 123° Southeast 35,000  Level FlightAware ADS-B
Fri 06:26:27 AM 36.2740 -119.5320 124° Southeast 35,000  Level FlightAware ADS-B
Fri 06:27:07 AM 36.2230 -119.4340 123° Southeast 35,000  Level FlightAware ADS-B
Fri 06:27:47 AM 36.1760 -119.3440 123° Southeast 35,000  Level FlightAware ADS-B
Fri 06:28:32 AM 36.1190 -119.2360 123° Southeast 35,000  Level FlightAware ADS-B
Fri 06:29:12 AM 36.0690 -119.1420 123° Southeast 35,000  Level FlightAware ADS-B
Fri 06:29:57 AM 36.0130 -119.0370 123° Southeast 35,000  Level FlightAware ADS-B
Fri 06:30:27 AM 35.9760 -118.9670 123° Southeast 35,000  Level FlightAware ADS-B
Fri 06:31:17 AM 35.9140 -118.8500 123° Southeast 35,000  Level FlightAware ADS-B
Fri 06:32:02 AM 35.8550 -118.7400 123° Southeast 35,000  Level FlightAware ADS-B
Fri 06:32:42 AM 35.8040 -118.6450 123° Southeast 35,000  Level FlightAware ADS-B
Fri 06:33:22 AM 35.7540 -118.5530 124° Southeast 35,000  Level FlightAware ADS-B
Fri 06:34:07 AM 35.6980 -118.4480 123° Southeast 35,000  Level FlightAware ADS-B
Fri 06:34:47 AM 35.6460 -118.3530 124° Southeast 35,000  Level FlightAware ADS-B
Fri 06:35:32 AM 35.5880 -118.2460 124° Southeast 35,000  Level FlightAware ADS-B
Fri 06:36:12 AM 35.5370 -118.1520 124° Southeast 35,000  Level FlightAware ADS-B
Fri 06:36:52 AM 35.4850 -118.0570 124° Southeast 35,000  Level FlightAware ADS-B
Fri 06:37:37 AM 35.4260 -117.9500 124° Southeast 35,000  Level FlightAware ADS-B
Fri 06:38:17 AM 35.3750 -117.8560 124° Southeast 35,000  Level FlightAware ADS-B
Fri 06:39:02 AM 35.3170 -117.7500 124° Southeast 35,000  Level FlightAware ADS-B
Fri 06:39:42 AM 35.2650 -117.6580 125° Southeast 35,000  Level FlightAware ADS-B
Fri 06:40:22 AM 35.2130 -117.5630 124° Southeast 35,000  Level FlightAware ADS-B
Fri 06:41:07 AM 35.1540 -117.4570 124° Southeast 35,000  Level FlightAware ADS-B
Fri 06:41:47 AM 35.1010 -117.3630 125° Southeast 35,000  Level FlightAware ADS-B
Fri 06:42:32 AM 35.0450 -117.2610 124° Southeast 35,000  Level FlightAware ADS-B
Fri 06:43:12 AM 34.9920 -117.1660 124° Southeast 35,000  Level FlightAware ADS-B
Fri 06:43:52 AM 34.9430 -117.0700 122° Southeast 35,000  Level FlightAware ADS-B
Fri 06:44:37 AM 34.8900 -116.9580 120° Southeast 35,000  Level FlightAware ADS-B
Fri 06:45:17 AM 34.8450 -116.8640 120° Southeast 35,000  Level FlightAware ADS-B
Fri 06:45:57 AM 34.7980 -116.7660 120° Southeast 35,000  Level FlightAware ADS-B
Fri 06:46:42 AM 34.7440 -116.6520 120° Southeast 35,000  Level FlightAware ADS-B
Fri 06:47:22 AM 34.6990 -116.5590 120° Southeast 35,000  Level FlightAware ADS-B
Fri 06:48:32 AM 34.6170 -116.3900 120° Southeast 35,000  Level FlightAware ADS-B
Fri 06:49:32 AM 34.5450 -116.2420 121° Southeast 35,000  Level FlightAware ADS-B
Fri 06:50:12 AM 34.4980 -116.1440 120° Southeast 35,000  Level FlightAware ADS-B
Fri 06:50:52 AM 34.4520 -116.0500 121° Southeast 35,000  Level FlightAware ADS-B
Fri 06:51:37 AM 34.4000 -115.9440 121° Southeast 35,000  Level FlightAware ADS-B
Fri 06:52:17 AM 34.3530 -115.8490 121° Southeast 35,000  Level FlightAware ADS-B
Fri 06:52:57 AM 34.3050 -115.7510 121° Southeast 35,000  Level FlightAware ADS-B
Fri 06:53:42 AM 34.2510 -115.6420 121° Southeast 35,000  Level FlightAware ADS-B
Fri 06:54:17 AM 34.2140 -115.5670 121° Southeast 35,000  Level FlightAware ADS-B
Fri 06:55:07 AM 34.1510 -115.4400 121° Southeast 35,000  Level FlightAware ADS-B
Fri 06:55:47 AM 34.1020 -115.3430 121° Southeast 35,000  Level FlightAware ADS-B
Fri 06:56:06 AM 34.0889 -115.3164 121° Southeast 499 574 35,000 -1,237 Level Albuquerque Center
Fri 07:01:37 AM 33.7090 -114.5620 121° Southeast 33,400 -1,251 Descending FlightAware ADS-B
Fri 07:03:17 AM 33.5880 -114.3260 122° Southeast 27,700 -1,500 Descending FlightAware ADS-B
Fri 07:06:42 AM 33.4590 -113.8220 107° East 25,000 -1,337 Descending FlightAware ADS-B
Fri 07:07:27 AM 33.4590 -113.6910 90° East 25,000 -1,452 Level FlightAware ADS-B
Fri 07:08:07 AM 33.4580 -113.5860 91° East 23,100 -1,523 Descending FlightAware ADS-B
Fri 07:08:52 AM 33.4570 -113.4680 91° East 20,800 -1,463 Descending FlightAware ADS-B
Fri 07:09:32 AM 33.4560 -113.3630 91° East 18,800 -1,378 Descending FlightAware ADS-B
Fri 07:10:17 AM 33.4550 -113.2470 91° East 16,500 -1,297 Descending FlightAware ADS-B
Fri 07:11:12 AM 33.4530 -113.1230 91° East 14,500 -1,192 Descending FlightAware ADS-B
Fri 07:11:52 AM 33.4520 -113.0340 91° East 13,400 -1,115 Descending FlightAware ADS-B
Fri 07:12:37 AM 33.4500 -112.9350 91° East 12,300 -1,083 Descending FlightAware ADS-B
Fri 07:13:17 AM 33.4490 -112.8520 91° East 11,200 -1,055 Descending FlightAware ADS-B
Fri 07:13:57 AM 33.4480 -112.7750 91° East 10,600 -1,014 Descending FlightAware ADS-B
Fri 07:14:42 AM 33.4460 -112.6940 92° East 10,100 -1,022 Descending FlightAware ADS-B
Fri 07:14:57 AM 33.4460 -112.6640 90° East 9,800 -1,055 Descending FlightAware ADS-B
Fri 07:15:17 AM 33.4450 -112.6370 93° East 9,500 -1,050 Descending FlightAware ADS-B
Fri 07:15:52 AM 33.4440 -112.5750 91° East 8,700 -1,057 Descending FlightAware ADS-B
Fri 07:16:22 AM 33.4440 -112.5230 90° East 8,200 -1,031 Descending FlightAware ADS-B
Fri 07:16:42 AM 33.4430 -112.4950 92° East 7,900 -1,033 Descending FlightAware ADS-B
Fri 07:17:17 AM 33.4430 -112.4390 90° East 7,200 -1,040 Descending FlightAware ADS-B
Fri 07:17:27 AM 33.4420 -112.4190 93° East 7,000 -1,024 Descending FlightAware ADS-B
Fri 07:17:52 AM 33.4410 -112.3760 92° East 6,900 -1,018 Descending FlightAware ADS-B
Fri 07:18:27 AM 33.4400 -112.3270 91° East 6,400 -1,082 Descending FlightAware ADS-B
Fri 07:19:07 AM 33.4390 -112.2710 91° East 5,200 -1,111 Descending FlightAware ADS-B
Fri 07:19:22 AM 33.4380 -112.2560 95° East 4,800 -991 Descending FlightAware ADS-B
Fri 07:19:42 AM 33.4370 -112.2270 92° East 4,200 -949 Descending FlightAware ADS-B
Fri 07:20:17 AM 33.4350 -112.1950 94° East 3,500 -862 Descending FlightAware ADS-B
Fri 07:20:37 AM 33.4310 -112.1550 97° East 3,100 -788 Descending FlightAware ADS-B
Fri 07:21:07 AM 33.4310 -112.1280 90° East 2,600 -729 Descending FlightAware ADS-B
Fri 07:21:47 AM 33.4310 -112.0930 90° East 2,100 -655 Descending FlightAware ADS-B
Fri 07:22:12 AM 33.4310 -112.0760 90° East 1,800 -600 Descending FlightAware ADS-B
Fri 07:22:27 AM 33.4310 -112.0660 90° East 1,700 -533 Descending FlightAware ADS-B
Fri 07:22:57 AM 33.4310 -112.0460 90° East 1,400 -600 Descending FlightAware ADS-B

Login

Don't have an account? Register now (free) for customized features, flight alerts, and more!